Aviation Digital Data Service (ADDS)

Output produced by METARs form (1753 UTC 24 March 2017)
found at http://www.aviationweather.gov/adds/metars/
 
LLBG 241750Z VRB03KT 9999 FEW030 17/12 Q1017 NOSIG
TAF LLBG 241714Z 2418/2518 02005KT 9999 FEW020 
     BECMG 2419/2421 VRB03KT 7000 SCT015 
     PROB30 2500/2506 3000 BR BKN010 
     BECMG 2506/2508 30010KT 9999 SCT025 
     BECMG 2515/2517 01005KT SCT018 TX21/2511Z TN11/2504Z
       
LLET 241450Z 02015KT CAVOK 24/03 Q1012
TAF LLET 241710Z 2418/2518 36010KT CAVOK 
     BECMG 2505/2507 03018KT TX26/2512Z TN15/2503Z
       
LLHA 241550Z 34009KT 9999 FEW030 18/13 Q1016
TAF LLHA 241716Z 2418/2518 34006KT 9999 FEW020 
     BECMG 2421/2423 VRB04KT 6000 SCT015 
     PROB30 2423/2506 4000 BR BKN012 
     BECMG 2506/2508 34010KT 9999 SCT025 TX20/2510Z TN12/2504Z
       
LLIB 241350Z 32006KT 9999 FEW045 19/07 Q1014
TAF AMD LLIB 241119Z 2412/2512 18006KT 9999 FEW040 
     BECMG 2414/2416 33008KT CAVOK 
     BECMG 2422/2424 VRB04KT 7000 FEW030 TX20/2412Z TN08/2504Z
       
LLSD 241750Z 34010KT 9999 FEW025 17/12 Q1017
TAF LLSD 241716Z 2418/2518 02005KT 9999 FEW020 
     BECMG 2419/2421 10004KT 7000 SCT015 
     PROB40 2422/2506 3000 BR BKN010 
     BECMG 2506/2508 30010KT 9999 SCT025 
     BECMG 2515/2517 01005KT SCT018 TX20/2511Z TN12/2504Z
       
LLBG 241750Z VRB03KT 9999 FEW030 17/12 Q1017 NOSIG
TAF LLBG 241714Z 2418/2518 02005KT 9999 FEW020 
     BECMG 2419/2421 VRB03KT 7000 SCT015 
     PROB30 2500/2506 3000 BR BKN010 
     BECMG 2506/2508 30010KT 9999 SCT025 
     BECMG 2515/2517 01005KT SCT018 TX21/2511Z TN11/2504Z
       
LLET 241450Z 02015KT CAVOK 24/03 Q1012
TAF LLET 241710Z 2418/2518 36010KT CAVOK 
     BECMG 2505/2507 03018KT TX26/2512Z TN15/2503Z
       
LLHA 241550Z 34009KT 9999 FEW030 18/13 Q1016
TAF LLHA 241716Z 2418/2518 34006KT 9999 FEW020 
     BECMG 2421/2423 VRB04KT 6000 SCT015 
     PROB30 2423/2506 4000 BR BKN012 
     BECMG 2506/2508 34010KT 9999 SCT025 TX20/2510Z TN12/2504Z
       
LLIB 241350Z 32006KT 9999 FEW045 19/07 Q1014
TAF AMD LLIB 241119Z 2412/2512 18006KT 9999 FEW040 
     BECMG 2414/2416 33008KT CAVOK 
     BECMG 2422/2424 VRB04KT 7000 FEW030 TX20/2412Z TN08/2504Z
       
LLSD 241750Z 34010KT 9999 FEW025 17/12 Q1017
TAF LLSD 241716Z 2418/2518 02005KT 9999 FEW020 
     BECMG 2419/2421 10004KT 7000 SCT015 
     PROB40 2422/2506 3000 BR BKN010 
     BECMG 2506/2508 30010KT 9999 SCT025 
     BECMG 2515/2517 01005KT SCT018 TX20/2511Z TN12/2504Z